createdAt,value
2023-02-16T00:00:21.182Z,100.00
2023-02-16T00:02:53.045Z,100.00
2023-02-16T00:05:24.904Z,100.00
2023-02-16T00:07:56.760Z,100.00
2023-02-16T00:10:28.317Z,100.00
2023-02-16T00:13:18.634Z,100.00
2023-02-16T00:15:50.177Z,100.00
2023-02-16T00:18:21.694Z,100.00
2023-02-16T00:20:53.169Z,100.00
2023-02-16T00:23:24.977Z,100.00
2023-02-16T00:25:56.461Z,100.00
2023-02-16T00:28:28.290Z,100.00
2023-02-16T00:30:59.911Z,100.00
2023-02-16T00:33:31.826Z,100.00
2023-02-16T00:36:03.320Z,100.00
2023-02-16T00:38:35.139Z,100.00
2023-02-16T00:41:26.584Z,100.00
2023-02-16T00:43:58.453Z,100.00
2023-02-16T00:46:29.993Z,100.00
2023-02-16T00:49:01.979Z,100.00
2023-02-16T00:51:33.468Z,100.00
2023-02-16T00:54:05.288Z,100.00
2023-02-16T00:56:36.795Z,100.00
2023-02-16T00:59:08.667Z,100.00
2023-02-16T01:01:40.198Z,100.00
2023-02-16T01:04:12.144Z,100.00
2023-02-16T01:07:02.410Z,100.00
2023-02-16T01:09:52.935Z,100.00
2023-02-16T01:12:24.497Z,100.00
2023-02-16T01:14:56.268Z,100.00
2023-02-16T01:17:27.765Z,100.00
2023-02-16T01:19:59.570Z,100.00
2023-02-16T01:22:33.440Z,100.00
2023-02-16T01:25:05.298Z,100.00
2023-02-16T01:27:37.168Z,100.00
2023-02-16T01:30:08.711Z,100.00
2023-02-16T01:32:40.222Z,100.00
2023-02-16T01:35:11.739Z,100.00
2023-02-16T01:37:43.339Z,100.00
2023-02-16T01:40:14.928Z,100.00
2023-02-16T01:42:46.401Z,100.00
2023-02-16T01:45:17.917Z,100.00
2023-02-16T01:47:49.521Z,100.00
2023-02-16T01:50:21.053Z,100.00
2023-02-16T01:52:52.548Z,100.00
2023-02-16T01:55:24.311Z,100.00
2023-02-16T01:57:56.109Z,100.00
2023-02-16T02:00:27.619Z,100.00
2023-02-16T02:03:19.098Z,100.00
2023-02-16T02:05:50.610Z,100.00
2023-02-16T02:08:22.556Z,100.00
2023-02-16T02:10:54.041Z,100.00
2023-02-16T02:13:25.596Z,100.00
2023-02-16T02:15:57.138Z,100.00
2023-02-16T02:18:28.912Z,100.00
2023-02-16T02:21:19.274Z,100.00
2023-02-16T02:23:51.086Z,100.00
2023-02-16T02:26:22.567Z,100.00
2023-02-16T02:28:54.399Z,100.00
2023-02-16T02:31:25.942Z,100.00
2023-02-16T02:33:57.791Z,100.00
2023-02-16T02:36:29.291Z,100.00
2023-02-16T02:39:01.110Z,100.00
2023-02-16T02:41:51.350Z,100.00
2023-02-16T02:44:23.199Z,100.00
2023-02-16T02:46:54.799Z,100.00
2023-02-16T02:49:26.683Z,100.00
2023-02-16T02:51:58.180Z,100.00
2023-02-16T02:54:48.645Z,100.00
2023-02-16T02:57:38.658Z,100.00
2023-02-16T03:00:29.084Z,100.00
2023-02-16T03:03:00.635Z,100.00
2023-02-16T03:05:32.353Z,100.00
2023-02-16T03:08:14.280Z,100.00
2023-02-16T03:11:05.017Z,100.00
2023-02-16T03:13:36.965Z,100.00
2023-02-16T03:16:08.516Z,100.00
2023-02-16T03:18:58.944Z,100.00
2023-02-16T03:21:49.265Z,100.00
2023-02-16T03:24:39.548Z,100.00
2023-02-16T03:27:29.598Z,100.00
2023-02-16T03:30:01.243Z,100.00
2023-02-16T03:32:32.785Z,100.00
2023-02-16T03:35:04.580Z,100.00
2023-02-16T03:37:36.048Z,100.00
2023-02-16T03:40:26.504Z,100.00
2023-02-16T03:42:58.180Z,100.00
2023-02-16T03:45:30.218Z,100.00
2023-02-16T03:48:01.806Z,100.00
2023-02-16T03:50:33.670Z,100.00
2023-02-16T03:53:08.255Z,100.00
2023-02-16T03:55:40.084Z,100.00
2023-02-16T03:58:11.571Z,100.00
2023-02-16T04:00:43.389Z,100.00
2023-02-16T04:03:14.869Z,100.00
2023-02-16T04:05:46.728Z,100.00
2023-02-16T04:08:18.201Z,100.00
2023-02-16T04:10:49.927Z,100.00
2023-02-16T04:13:21.424Z,100.00
2023-02-16T04:15:53.323Z,100.00
2023-02-16T04:18:24.816Z,100.00
2023-02-16T04:20:56.288Z,100.00
2023-02-16T04:23:27.756Z,100.00
2023-02-16T04:25:59.263Z,100.00
2023-02-16T04:28:30.736Z,100.00
2023-02-16T04:31:02.822Z,100.00
2023-02-16T04:33:34.947Z,100.00
2023-02-16T04:36:06.473Z,100.00
2023-02-16T04:38:38.503Z,100.00
2023-02-16T04:41:09.974Z,100.00
2023-02-16T04:43:41.822Z,100.00
2023-02-16T04:46:13.358Z,100.00
2023-02-16T04:48:45.176Z,100.00
2023-02-16T04:51:16.733Z,100.00
2023-02-16T04:53:48.249Z,100.00
2023-02-16T04:56:19.721Z,100.00
2023-02-16T04:58:51.470Z,100.00
2023-02-16T05:01:23.028Z,100.00
2023-02-16T05:03:54.893Z,100.00
2023-02-16T05:06:26.459Z,100.00
2023-02-16T05:08:58.272Z,100.00
2023-02-16T05:11:48.857Z,100.00
2023-02-16T05:14:39.344Z,100.00
2023-02-16T05:17:10.864Z,100.00
2023-02-16T05:19:42.751Z,100.00
2023-02-16T05:22:14.345Z,100.00
2023-02-16T05:24:46.079Z,100.00
2023-02-16T05:27:17.585Z,100.00
2023-02-16T05:29:49.198Z,100.00
2023-02-16T05:32:20.718Z,100.00
2023-02-16T05:34:52.565Z,100.00
2023-02-16T05:37:24.057Z,100.00
2023-02-16T05:39:55.938Z,100.00
2023-02-16T05:42:27.490Z,100.00
2023-02-16T05:44:59.387Z,100.00
2023-02-16T05:47:30.936Z,100.00
2023-02-16T05:50:02.432Z,100.00
2023-02-16T05:52:33.907Z,100.00
2023-02-16T05:55:05.827Z,100.00
2023-02-16T05:57:37.373Z,100.00
2023-02-16T06:00:09.037Z,100.00
2023-02-16T06:02:40.585Z,100.00
2023-02-16T06:05:12.454Z,100.00
2023-02-16T06:07:44.223Z,100.00
2023-02-16T06:10:16.328Z,100.00
2023-02-16T06:12:47.820Z,100.00
2023-02-16T06:15:19.527Z,100.00
2023-02-16T06:17:51.204Z,100.00
2023-02-16T06:20:23.016Z,100.00
2023-02-16T06:22:54.574Z,100.00
2023-02-16T06:25:26.397Z,100.00
2023-02-16T06:27:57.900Z,100.00
2023-02-16T06:30:29.792Z,100.00
2023-02-16T06:33:01.314Z,100.00
2023-02-16T06:35:33.132Z,100.00
2023-02-16T06:38:04.611Z,100.00
2023-02-16T06:40:36.385Z,100.00
2023-02-16T06:43:08.098Z,100.00
2023-02-16T06:45:40.011Z,100.00
2023-02-16T06:48:11.522Z,100.00
2023-02-16T06:50:43.509Z,100.00
2023-02-16T06:53:14.997Z,100.00
2023-02-16T06:55:46.814Z,100.00
2023-02-16T06:58:18.356Z,100.00
2023-02-16T07:00:50.244Z,100.00
2023-02-16T07:03:21.780Z,100.00
2023-02-16T07:05:53.791Z,100.00
2023-02-16T07:08:25.307Z,100.00
2023-02-16T07:10:57.040Z,100.00
2023-02-16T07:13:28.508Z,100.00
2023-02-16T07:16:00.043Z,100.00
2023-02-16T07:18:31.745Z,100.00
2023-02-16T07:21:03.854Z,100.00
2023-02-16T07:23:35.490Z,100.00
2023-02-16T07:26:07.297Z,100.00
2023-02-16T07:28:38.856Z,100.00
2023-02-16T07:31:10.819Z,100.00
2023-02-16T07:33:42.410Z,100.00
2023-02-16T07:36:13.908Z,100.00
2023-02-16T07:38:45.412Z,100.00
2023-02-16T07:41:16.950Z,100.00
2023-02-16T07:43:48.454Z,100.00
2023-02-16T07:46:19.993Z,100.00
2023-02-16T07:48:51.499Z,100.00
2023-02-16T07:51:23.202Z,100.00
2023-02-16T07:53:54.688Z,100.00
2023-02-16T07:56:26.531Z,100.00
2023-02-16T07:58:57.998Z,100.00
2023-02-16T08:01:30.317Z,100.00
2023-02-16T08:04:01.844Z,100.00
2023-02-16T08:06:33.518Z,100.00
2023-02-16T08:09:05.013Z,100.00
2023-02-16T08:11:36.735Z,100.00
2023-02-16T08:14:08.254Z,100.00
2023-02-16T08:16:40.201Z,100.00
2023-02-16T08:19:13.751Z,100.00
2023-02-16T08:21:49.682Z,100.00
2023-02-16T08:24:21.281Z,100.00
2023-02-16T08:26:54.053Z,100.00
2023-02-16T08:29:25.541Z,100.00
2023-02-16T08:31:57.326Z,100.00
2023-02-16T08:34:28.880Z,100.00
2023-02-16T08:37:00.578Z,100.00
2023-02-16T08:39:32.854Z,100.00
2023-02-16T08:42:04.771Z,100.00
2023-02-16T08:44:36.422Z,100.00
2023-02-16T08:47:09.647Z,100.00
2023-02-16T08:49:41.197Z,100.00
2023-02-16T08:52:13.033Z,100.00
2023-02-16T08:54:44.519Z,100.00
2023-02-16T08:57:16.062Z,100.00
2023-02-16T09:00:07.556Z,99.54
2023-02-16T09:02:39.254Z,97.53
2023-02-16T09:05:11.208Z,97.30
2023-02-16T09:07:42.848Z,96.88
2023-02-16T09:10:14.404Z,96.43
2023-02-16T09:12:49.789Z,97.07
2023-02-16T09:15:21.454Z,94.56
2023-02-16T09:17:53.017Z,93.64
2023-02-16T09:20:24.780Z,91.12
2023-02-16T09:22:56.328Z,90.51
2023-02-16T09:25:28.090Z,88.34
2023-02-16T09:27:59.634Z,86.33
2023-02-16T09:30:31.920Z,85.96
2023-02-16T09:33:03.496Z,83.49
2023-02-16T09:35:35.142Z,83.80
2023-02-16T09:38:07.715Z,82.39
2023-02-16T09:40:39.513Z,81.38
2023-02-16T09:43:11.029Z,80.51
2023-02-16T09:45:43.038Z,80.35
2023-02-16T09:48:15.692Z,77.30
2023-02-16T09:50:54.362Z,76.03
2023-02-16T09:53:27.072Z,77.70
2023-02-16T09:55:59.983Z,77.11
2023-02-16T09:58:31.584Z,77.47
2023-02-16T10:01:03.352Z,74.95
2023-02-16T10:03:34.845Z,74.30
2023-02-16T10:06:06.919Z,71.93
2023-02-16T10:08:38.954Z,72.01
2023-02-16T10:11:33.851Z,73.00
2023-02-16T10:14:05.343Z,70.96
2023-02-16T10:16:37.727Z,72.13
2023-02-16T10:19:09.280Z,71.09
2023-02-16T10:21:41.398Z,70.10
2023-02-16T10:24:13.361Z,69.51
2023-02-16T10:26:46.530Z,70.66
2023-02-16T10:29:18.145Z,69.60
2023-02-16T10:31:50.343Z,70.20
2023-02-16T10:34:23.443Z,70.29
2023-02-16T10:36:55.422Z,70.88
2023-02-16T10:39:26.917Z,70.94
2023-02-16T10:41:58.925Z,69.04
2023-02-16T10:44:30.468Z,68.92
2023-02-16T10:47:03.459Z,68.61
2023-02-16T10:49:34.961Z,68.72
2023-02-16T10:52:06.939Z,67.98
2023-02-16T10:54:38.551Z,68.38
2023-02-16T10:57:11.599Z,66.69
2023-02-16T10:59:43.226Z,68.67
2023-02-16T11:02:14.721Z,66.88
2023-02-16T11:04:46.286Z,66.86
2023-02-16T11:07:18.673Z,64.98
2023-02-16T11:09:53.889Z,65.41
2023-02-16T11:12:25.723Z,66.75
2023-02-16T11:14:57.484Z,64.83
2023-02-16T11:17:29.333Z,62.25
2023-02-16T11:20:01.989Z,63.67
2023-02-16T11:22:34.013Z,64.28
2023-02-16T11:25:05.526Z,65.68
2023-02-16T11:27:37.387Z,64.18
2023-02-16T11:30:09.441Z,63.44
2023-02-16T11:32:41.605Z,63.22
2023-02-16T11:35:13.090Z,62.00
2023-02-16T11:37:44.905Z,61.14
2023-02-16T11:40:16.390Z,62.86
2023-02-16T11:42:48.345Z,62.46
2023-02-16T11:45:19.840Z,61.73
2023-02-16T11:47:51.533Z,61.79
2023-02-16T11:50:23.680Z,61.53
2023-02-16T11:52:55.454Z,60.68
2023-02-16T11:55:27.117Z,60.11
2023-02-16T11:57:58.820Z,59.36
2023-02-16T12:00:31.691Z,60.19
2023-02-16T12:03:03.542Z,62.30
2023-02-16T12:05:35.318Z,61.50
2023-02-16T12:08:07.202Z,62.14
2023-02-16T12:10:38.749Z,63.14
2023-02-16T12:13:10.599Z,63.67
2023-02-16T12:15:43.084Z,63.28
2023-02-16T12:18:14.654Z,63.39
2023-02-16T12:20:46.505Z,63.35
2023-02-16T12:23:18.285Z,62.27
2023-02-16T12:25:50.146Z,62.95
2023-02-16T12:28:21.655Z,63.24
2023-02-16T12:30:53.691Z,62.19
2023-02-16T12:33:26.728Z,63.49
2023-02-16T12:35:58.588Z,62.82
2023-02-16T12:38:30.094Z,62.43
2023-02-16T12:41:01.981Z,61.49
2023-02-16T12:43:33.546Z,61.25
2023-02-16T12:46:05.739Z,60.48
2023-02-16T12:48:38.702Z,59.98
2023-02-16T12:51:10.640Z,60.33
2023-02-16T12:53:42.273Z,59.91
2023-02-16T12:56:13.852Z,60.64
2023-02-16T12:58:45.469Z,60.62
2023-02-16T13:01:17.993Z,60.96
2023-02-16T13:03:50.192Z,61.39
2023-02-16T13:06:21.762Z,60.49
2023-02-16T13:08:53.245Z,60.24
2023-02-16T13:11:25.186Z,60.40
2023-02-16T13:13:56.850Z,59.92
2023-02-16T13:16:30.869Z,59.55
2023-02-16T13:19:02.683Z,58.79
2023-02-16T13:21:42.488Z,58.32
2023-02-16T13:24:20.800Z,58.88
2023-02-16T13:26:52.610Z,58.29
2023-02-16T13:29:24.997Z,58.14
2023-02-16T13:31:56.803Z,57.50
2023-02-16T13:34:28.504Z,57.54
2023-02-16T13:37:00.222Z,57.29
2023-02-16T13:39:31.983Z,57.45
2023-02-16T13:42:03.772Z,57.67
2023-02-16T13:44:35.278Z,57.18
2023-02-16T13:47:07.088Z,57.57
2023-02-16T13:49:42.322Z,55.76
2023-02-16T13:52:13.882Z,56.52
2023-02-16T13:54:45.395Z,55.57
2023-02-16T13:57:18.405Z,54.17
2023-02-16T13:59:49.909Z,55.19
2023-02-16T14:02:21.509Z,55.76
2023-02-16T14:04:53.107Z,54.61
2023-02-16T14:07:24.973Z,56.57
2023-02-16T14:09:56.492Z,56.66
2023-02-16T14:12:28.537Z,57.37
2023-02-16T14:15:00.247Z,57.48
2023-02-16T14:17:32.284Z,57.47
2023-02-16T14:20:05.147Z,58.07
2023-02-16T14:22:36.931Z,58.01
2023-02-16T14:25:08.811Z,58.55
2023-02-16T14:27:40.573Z,57.68
2023-02-16T14:30:12.234Z,57.85
2023-02-16T14:32:44.096Z,57.70
2023-02-16T14:35:15.669Z,58.06
2023-02-16T14:37:47.520Z,58.41
2023-02-16T14:40:19.065Z,58.58
2023-02-16T14:42:50.967Z,58.58
2023-02-16T14:45:22.574Z,58.14
2023-02-16T14:47:55.596Z,58.86
2023-02-16T14:50:28.595Z,59.23
2023-02-16T14:53:00.640Z,60.36
2023-02-16T14:55:32.132Z,59.68
2023-02-16T14:58:04.015Z,60.61
2023-02-16T15:00:35.822Z,61.56
2023-02-16T15:03:07.706Z,61.49
2023-02-16T15:05:39.717Z,61.65
2023-02-16T15:08:11.789Z,61.46
2023-02-16T15:10:46.340Z,61.34
2023-02-16T15:13:17.875Z,61.37
2023-02-16T15:15:50.032Z,61.08
2023-02-16T15:18:21.625Z,61.38
2023-02-16T15:20:53.167Z,61.77
2023-02-16T15:23:25.435Z,61.25
2023-02-16T15:25:56.987Z,62.88
2023-02-16T15:28:29.762Z,62.07
2023-02-16T15:31:01.545Z,62.44
2023-02-16T15:33:33.996Z,62.51
2023-02-16T15:36:07.423Z,63.10
2023-02-16T15:38:39.313Z,63.13
2023-02-16T15:41:10.871Z,64.02
2023-02-16T15:43:43.236Z,63.80
2023-02-16T15:46:15.854Z,64.23
2023-02-16T15:48:49.618Z,65.50
2023-02-16T15:51:21.150Z,64.96
2023-02-16T15:53:52.951Z,64.77
2023-02-16T15:56:24.492Z,65.16
2023-02-16T15:58:56.524Z,65.84
2023-02-16T16:01:33.006Z,65.94
2023-02-16T16:04:05.140Z,66.92
2023-02-16T16:06:36.706Z,67.13
2023-02-16T16:09:08.899Z,67.68
2023-02-16T16:11:40.929Z,68.51
2023-02-16T16:14:12.778Z,69.17
2023-02-16T16:16:46.171Z,70.32
2023-02-16T16:19:17.817Z,71.28
2023-02-16T16:21:49.765Z,71.48
2023-02-16T16:24:22.501Z,72.24
2023-02-16T16:26:55.801Z,72.39
2023-02-16T16:29:29.872Z,72.17
2023-02-16T16:32:01.831Z,73.90
2023-02-16T16:34:33.428Z,74.29
2023-02-16T16:37:07.215Z,73.81
2023-02-16T16:39:40.424Z,74.26
2023-02-16T16:42:13.088Z,74.53
2023-02-16T16:44:44.676Z,74.94
2023-02-16T16:47:16.240Z,75.11
2023-02-16T16:49:47.744Z,74.98
2023-02-16T16:52:19.301Z,75.23
2023-02-16T16:54:51.724Z,75.87
2023-02-16T16:57:24.432Z,76.22
2023-02-16T16:59:56.107Z,76.22
2023-02-16T17:02:27.825Z,76.23
2023-02-16T17:04:59.341Z,76.86
2023-02-16T17:07:31.130Z,76.57
2023-02-16T17:10:02.681Z,77.09
2023-02-16T17:12:34.539Z,77.48
2023-02-16T17:15:06.052Z,78.52
2023-02-16T17:17:38.785Z,78.88
2023-02-16T17:20:10.281Z,78.74
2023-02-16T17:22:41.966Z,79.61
2023-02-16T17:25:13.464Z,80.48
2023-02-16T17:27:45.376Z,80.65
2023-02-16T17:30:17.021Z,81.25
2023-02-16T17:32:48.902Z,81.18
2023-02-16T17:35:20.467Z,81.96
2023-02-16T17:37:52.354Z,82.55
2023-02-16T17:40:23.855Z,82.33
2023-02-16T17:42:55.796Z,82.85
2023-02-16T17:45:27.299Z,82.61
2023-02-16T17:47:59.084Z,82.52
2023-02-16T17:50:32.687Z,82.44
2023-02-16T17:53:04.496Z,82.26
2023-02-16T17:55:36.001Z,82.94
2023-02-16T17:58:07.785Z,81.74
2023-02-16T18:00:39.301Z,81.71
2023-02-16T18:03:11.236Z,80.95
2023-02-16T18:05:42.754Z,80.63
2023-02-16T18:08:14.296Z,80.36
2023-02-16T18:10:45.816Z,80.05
2023-02-16T18:13:17.433Z,78.88
2023-02-16T18:15:48.932Z,79.84
2023-02-16T18:18:20.466Z,79.29
2023-02-16T18:20:51.978Z,79.44
2023-02-16T18:23:23.852Z,79.57
2023-02-16T18:25:55.387Z,80.25
2023-02-16T18:28:27.259Z,81.34
2023-02-16T18:30:58.858Z,81.28
2023-02-16T18:33:30.904Z,80.33
2023-02-16T18:36:02.704Z,81.44
2023-02-16T18:38:34.792Z,80.26
2023-02-16T18:41:06.319Z,80.47
2023-02-16T18:43:38.215Z,80.32
2023-02-16T18:46:09.774Z,80.28
2023-02-16T18:48:41.677Z,80.16
2023-02-16T18:51:13.184Z,80.49
2023-02-16T18:53:45.015Z,81.00
2023-02-16T18:56:16.527Z,81.14
2023-02-16T18:58:48.174Z,80.84
2023-02-16T19:01:19.786Z,81.60
2023-02-16T19:03:51.617Z,81.40
2023-02-16T19:06:23.096Z,81.28
2023-02-16T19:08:54.669Z,81.51
2023-02-16T19:11:28.045Z,81.54
2023-02-16T19:13:59.645Z,82.74
2023-02-16T19:16:31.208Z,82.27
2023-02-16T19:19:03.086Z,83.04
2023-02-16T19:21:34.590Z,83.09
2023-02-16T19:24:06.484Z,83.48
2023-02-16T19:26:37.993Z,83.21
2023-02-16T19:29:09.819Z,83.21
2023-02-16T19:31:41.467Z,82.96
2023-02-16T19:34:13.052Z,82.98
2023-02-16T19:36:44.638Z,82.85
2023-02-16T19:39:16.389Z,82.81
2023-02-16T19:41:47.885Z,83.77
2023-02-16T19:44:19.440Z,82.71
2023-02-16T19:46:51.235Z,83.32
2023-02-16T19:49:22.997Z,83.25
2023-02-16T19:51:55.546Z,83.71
2023-02-16T19:54:28.820Z,83.16
2023-02-16T19:57:00.341Z,83.38
2023-02-16T19:59:31.898Z,83.88
2023-02-16T20:02:03.820Z,83.45
2023-02-16T20:04:35.671Z,83.40
2023-02-16T20:07:08.533Z,84.48
2023-02-16T20:09:40.516Z,84.25
2023-02-16T20:12:12.114Z,83.62
2023-02-16T20:14:43.860Z,83.93
2023-02-16T20:17:15.385Z,84.06
2023-02-16T20:19:47.304Z,84.60
2023-02-16T20:22:18.822Z,84.74
2023-02-16T20:24:50.704Z,84.80
2023-02-16T20:27:22.242Z,84.98
2023-02-16T20:29:54.338Z,85.63
2023-02-16T20:32:25.949Z,85.49
2023-02-16T20:34:57.778Z,86.09
2023-02-16T20:37:30.206Z,85.70
2023-02-16T20:40:01.787Z,86.18
2023-02-16T20:42:33.396Z,86.46
2023-02-16T20:45:05.451Z,87.33
2023-02-16T20:47:37.057Z,87.71
2023-02-16T20:50:08.604Z,87.45
2023-02-16T20:52:40.184Z,88.33
2023-02-16T20:55:12.099Z,88.02
2023-02-16T20:57:43.654Z,90.04
2023-02-16T21:00:16.441Z,92.22
2023-02-16T21:02:47.973Z,93.59
2023-02-16T21:05:19.508Z,93.83
2023-02-16T21:07:51.041Z,96.53
2023-02-16T21:10:22.860Z,95.29
2023-02-16T21:12:54.370Z,95.74
2023-02-16T21:15:26.116Z,96.17
2023-02-16T21:17:57.663Z,96.78
2023-02-16T21:20:29.318Z,99.09
2023-02-16T21:23:03.454Z,98.84
2023-02-16T21:25:35.194Z,100.00
2023-02-16T21:28:06.768Z,100.00
2023-02-16T21:30:38.593Z,100.00
2023-02-16T21:33:10.561Z,100.00
2023-02-16T21:35:42.103Z,100.00
2023-02-16T21:38:13.672Z,100.00
2023-02-16T21:41:04.227Z,100.00
2023-02-16T21:43:36.006Z,100.00
2023-02-16T21:46:08.600Z,100.00
2023-02-16T21:48:50.527Z,100.00
2023-02-16T21:51:22.095Z,100.00
2023-02-16T21:53:53.617Z,100.00
2023-02-16T21:56:25.146Z,99.89
2023-02-16T21:58:56.968Z,100.00
2023-02-16T22:01:28.534Z,100.00
2023-02-16T22:04:00.523Z,100.00
2023-02-16T22:06:35.016Z,100.00
2023-02-16T22:09:06.889Z,100.00
2023-02-16T22:11:38.418Z,100.00
2023-02-16T22:14:10.249Z,100.00
2023-02-16T22:16:41.801Z,100.00
2023-02-16T22:19:13.362Z,100.00
2023-02-16T22:21:44.900Z,100.00
2023-02-16T22:24:17.002Z,100.00
2023-02-16T22:26:48.560Z,100.00
2023-02-16T22:29:20.155Z,100.00
2023-02-16T22:31:51.697Z,100.00
2023-02-16T22:34:23.350Z,100.00
2023-02-16T22:36:54.892Z,100.00
2023-02-16T22:39:26.690Z,100.00
2023-02-16T22:41:58.221Z,100.00
2023-02-16T22:44:30.113Z,100.00
2023-02-16T22:47:01.709Z,100.00
2023-02-16T22:49:33.257Z,100.00
2023-02-16T22:52:04.782Z,100.00
2023-02-16T22:54:36.534Z,100.00
2023-02-16T22:57:08.063Z,100.00
2023-02-16T22:59:39.600Z,100.00
2023-02-16T23:02:11.137Z,100.00
2023-02-16T23:04:43.381Z,100.00
2023-02-16T23:07:15.018Z,100.00
2023-02-16T23:09:46.695Z,100.00
2023-02-16T23:12:18.787Z,100.00
2023-02-16T23:14:50.554Z,100.00
2023-02-16T23:17:22.081Z,100.00
2023-02-16T23:19:53.631Z,100.00
2023-02-16T23:22:25.138Z,100.00
2023-02-16T23:25:15.367Z,100.00
2023-02-16T23:27:46.854Z,100.00
2023-02-16T23:30:18.479Z,100.00
2023-02-16T23:32:50.031Z,100.00
2023-02-16T23:35:21.633Z,100.00
2023-02-16T23:37:53.142Z,100.00
2023-02-16T23:40:24.831Z,100.00
2023-02-16T23:42:56.397Z,100.00
2023-02-16T23:45:28.314Z,100.00
2023-02-16T23:47:59.828Z,100.00
2023-02-16T23:50:31.338Z,100.00
2023-02-16T23:53:02.886Z,100.00
2023-02-16T23:55:34.715Z,100.00
2023-02-16T23:58:06.238Z,100.00
